createdAt,value
2022-10-26T00:00:30.401Z,100912.16
2022-10-26T00:03:07.219Z,100910.47
2022-10-26T00:05:35.532Z,100906.91
2022-10-26T00:08:02.708Z,100908.56
2022-10-26T00:10:41.228Z,100928.06
2022-10-26T00:13:19.694Z,100920.06
2022-10-26T00:15:51.109Z,100925.41
2022-10-26T00:18:20.162Z,100927.09
2022-10-26T00:20:49.321Z,100923.47
2022-10-26T00:23:16.334Z,100928.72
2022-10-26T00:26:03.219Z,100920.63
2022-10-26T00:28:30.316Z,100915.44
2022-10-26T00:31:01.072Z,100911.59
2022-10-26T00:33:28.287Z,100908.91
2022-10-26T00:35:55.561Z,100911.28
2022-10-26T00:38:26.532Z,100914.75
2022-10-26T00:43:58.811Z,100904.13
2022-10-26T00:46:36.141Z,100903.91
2022-10-26T00:49:05.787Z,100893.06
2022-10-26T00:51:34.150Z,100902.97
2022-10-26T00:54:12.697Z,100900.50
2022-10-26T00:56:53.413Z,100901.13
2022-10-26T00:59:25.405Z,100906.44
2022-10-26T01:02:06.984Z,100907.56
2022-10-26T01:05:04.242Z,100918.66
2022-10-26T01:07:39.953Z,100904.44
2022-10-26T01:10:14.257Z,100903.91
2022-10-26T01:12:41.455Z,100900.34
2022-10-26T01:15:15.480Z,100902.22
2022-10-26T01:17:53.070Z,100901.22
2022-10-26T01:20:28.360Z,100893.25
2022-10-26T01:23:09.667Z,100901.13
2022-10-26T01:25:51.680Z,100899.59
2022-10-26T01:28:39.517Z,100898.84
2022-10-26T01:31:15.706Z,100891.00
2022-10-26T01:34:10.689Z,100901.16
2022-10-26T01:36:48.473Z,100895.91
2022-10-26T01:39:33.303Z,100895.75
2022-10-26T01:42:07.682Z,100885.09
2022-10-26T01:45:09.799Z,100884.56
2022-10-26T01:47:38.367Z,100882.62
2022-10-26T01:50:08.792Z,100884.66
2022-10-26T01:52:37.919Z,100889.81
2022-10-26T01:55:31.648Z,100893.88
2022-10-26T01:58:03.958Z,100886.75
2022-10-26T02:00:42.482Z,100883.16
2022-10-26T02:03:22.320Z,100877.00
2022-10-26T02:06:07.255Z,100874.13
2022-10-26T02:08:37.222Z,100872.06
2022-10-26T02:11:22.246Z,100871.22
2022-10-26T02:13:49.345Z,100881.44
2022-10-26T02:16:34.922Z,100867.59
2022-10-26T02:19:21.121Z,100877.53
2022-10-26T02:21:58.045Z,100868.22
2022-10-26T02:24:25.850Z,100875.13
2022-10-26T02:26:56.012Z,100881.91
2022-10-26T02:29:24.707Z,100881.09
2022-10-26T02:31:55.244Z,100878.41
2022-10-26T02:34:26.149Z,100875.66
2022-10-26T02:36:58.421Z,100883.59
2022-10-26T02:39:26.369Z,100878.25
2022-10-26T02:42:15.174Z,100872.53
2022-10-26T02:44:46.874Z,100874.25
2022-10-26T02:47:18.637Z,100878.75
2022-10-26T03:56:52.793Z,100866.16
2022-10-26T03:59:31.382Z,100866.16
2022-10-26T04:02:00.574Z,100872.97
2022-10-26T04:04:36.147Z,100868.75
2022-10-26T04:07:03.274Z,100873.84
2022-10-26T04:09:36.405Z,100873.56
2022-10-26T04:12:14.739Z,100867.16
2022-10-26T04:14:44.390Z,100874.44
2022-10-26T04:17:14.193Z,100875.22
2022-10-26T04:19:42.860Z,100873.81
2022-10-26T04:22:18.087Z,100874.91
2022-10-26T04:24:46.774Z,100869.94
2022-10-26T04:27:19.618Z,100880.13
2022-10-26T04:29:49.578Z,100871.19
2022-10-26T04:32:19.271Z,100875.44
2022-10-26T04:35:09.963Z,100876.34
2022-10-26T04:37:41.429Z,100873.22
2022-10-26T04:40:12.362Z,100868.34
2022-10-26T04:42:48.886Z,100870.72
2022-10-26T04:45:41.330Z,100868.94
2022-10-26T04:48:41.382Z,100866.78
2022-10-26T04:51:25.365Z,100867.81
2022-10-26T04:53:59.230Z,100862.34
2022-10-26T04:56:26.719Z,100863.19
2022-10-26T04:59:21.703Z,100866.63
2022-10-26T05:01:52.949Z,100864.69
2022-10-26T05:04:52.766Z,100868.16
2022-10-26T05:07:31.438Z,100868.19
2022-10-26T05:10:01.548Z,100874.84
2022-10-26T05:12:36.045Z,100872.31
2022-10-26T05:15:08.774Z,100871.84
2022-10-26T05:17:39.339Z,100877.34
2022-10-26T05:20:23.748Z,100878.25
2022-10-26T05:23:15.328Z,100884.06
2022-10-26T05:25:51.077Z,100876.81
2022-10-26T05:28:40.392Z,100877.09
2022-10-26T05:31:12.909Z,100891.41
2022-10-26T05:34:07.145Z,100892.34
2022-10-26T05:36:34.100Z,100887.75
2022-10-26T05:39:00.910Z,100892.25
2022-10-26T05:41:28.744Z,100887.34
2022-10-26T05:43:55.941Z,100898.50
2022-10-26T05:46:30.317Z,100905.41
2022-10-26T05:48:57.727Z,100887.03
2022-10-26T05:51:25.157Z,100895.97
2022-10-26T05:53:55.621Z,100905.72
2022-10-26T05:56:50.845Z,100910.19
2022-10-26T06:09:13.530Z,100898.13
2022-10-26T06:12:06.160Z,100910.00
2022-10-26T06:17:54.340Z,100914.44
2022-10-26T06:20:46.246Z,100919.03
2022-10-26T06:26:58.948Z,100920.44
2022-10-26T06:29:58.558Z,100922.78
2022-10-26T06:36:10.881Z,100919.72
2022-10-26T06:51:08.899Z,100936.28
2022-10-26T06:54:07.365Z,100937.78
2022-10-26T06:56:37.070Z,100947.41
2022-10-26T06:59:27.027Z,100950.91
2022-10-26T07:02:04.383Z,100940.72
2022-10-26T07:04:51.063Z,100949.47
2022-10-26T07:07:31.039Z,100943.34
2022-10-26T07:10:18.538Z,100950.88
2022-10-26T07:13:11.064Z,100961.47
2022-10-26T07:16:03.397Z,100954.22
2022-10-26T07:18:41.222Z,100954.94
2022-10-26T07:21:18.044Z,100958.69
2022-10-26T07:23:58.753Z,100949.81
2022-10-26T07:26:33.979Z,100954.28
2022-10-26T07:29:39.796Z,100954.12
2022-10-26T07:32:34.759Z,100961.25
2022-10-26T07:35:11.568Z,100971.72
2022-10-26T07:37:51.062Z,100967.28
2022-10-26T07:40:34.346Z,100963.09
2022-10-26T07:43:05.468Z,100955.53
2022-10-26T07:45:39.361Z,100963.09
2022-10-26T07:48:06.897Z,100965.47
2022-10-26T07:50:36.847Z,100959.06
2022-10-26T07:53:03.952Z,100961.44
2022-10-26T07:55:31.221Z,100963.09
2022-10-26T07:58:00.863Z,100955.63
2022-10-26T08:00:30.672Z,100961.12
2022-10-26T08:03:00.436Z,100956.38
2022-10-26T08:05:33.031Z,100959.91
2022-10-26T08:08:20.163Z,100967.38
2022-10-26T08:10:53.693Z,100967.72
2022-10-26T08:13:21.527Z,100970.34
2022-10-26T08:15:56.706Z,100966.31
2022-10-26T08:18:23.695Z,100966.00
2022-10-26T08:20:50.521Z,100967.00
2022-10-26T08:23:17.365Z,100960.56
2022-10-26T08:25:44.216Z,100978.84
2022-10-26T08:28:11.349Z,100971.69
2022-10-26T08:30:38.228Z,100959.91
2022-10-26T08:33:12.145Z,100968.66
2022-10-26T08:35:39.291Z,100962.31
2022-10-26T08:38:09.579Z,100976.63
2022-10-26T08:40:41.051Z,100983.56
2022-10-26T08:43:08.119Z,100982.75
2022-10-26T08:45:46.910Z,100986.00
2022-10-26T08:48:26.918Z,100990.97
2022-10-26T08:50:55.955Z,100987.66
2022-10-26T08:53:28.711Z,100987.81
2022-10-26T08:56:02.379Z,100985.28
2022-10-26T08:58:32.998Z,100980.59
2022-10-26T09:01:03.852Z,100984.28
2022-10-26T09:03:30.782Z,100997.06
2022-10-26T09:06:12.329Z,101004.31
2022-10-26T09:08:52.248Z,101007.56
2022-10-26T09:11:25.193Z,101011.31
2022-10-26T09:14:01.409Z,101018.94
2022-10-26T09:16:38.249Z,101016.87
2022-10-26T09:19:23.894Z,101021.59
2022-10-26T09:22:09.409Z,101030.50
2022-10-26T09:24:41.751Z,101036.44
2022-10-26T09:27:28.898Z,101042.59
2022-10-26T09:30:08.180Z,101039.84
2022-10-26T09:32:49.100Z,101032.94
2022-10-26T09:35:26.551Z,101024.69
2022-10-26T09:37:56.211Z,101015.97
2022-10-26T09:40:42.096Z,101015.53
2022-10-26T09:43:22.079Z,101014.75
2022-10-26T09:46:06.696Z,101019.38
2022-10-26T09:48:37.677Z,101028.44
2022-10-26T09:51:05.090Z,101023.09
2022-10-26T09:53:35.562Z,101011.81
2022-10-26T09:56:06.156Z,101021.44
2022-10-26T09:58:38.531Z,101026.94
2022-10-26T10:01:05.755Z,101028.91
2022-10-26T10:03:34.585Z,101030.03
2022-10-26T10:06:39.409Z,101024.81
2022-10-26T10:09:14.039Z,101021.22
2022-10-26T10:11:44.804Z,101026.91
2022-10-26T10:14:23.727Z,101019.87
2022-10-26T10:17:02.846Z,101020.19
2022-10-26T10:19:34.946Z,101020.28
2022-10-26T10:27:56.807Z,101022.63
2022-10-26T10:30:29.562Z,101018.50
2022-10-26T10:33:08.596Z,101026.56
2022-10-26T10:35:35.999Z,101034.59
2022-10-26T10:38:05.396Z,101025.81
2022-10-26T10:40:37.761Z,101024.56
2022-10-26T10:43:13.772Z,101029.56
2022-10-26T10:45:43.820Z,101028.41
2022-10-26T10:48:13.892Z,101020.88
2022-10-26T10:51:02.491Z,101020.66
2022-10-26T11:00:11.747Z,101012.22
2022-10-26T11:03:03.513Z,101009.63
2022-10-26T11:05:51.256Z,101014.06
2022-10-26T11:08:45.267Z,101005.19
2022-10-26T11:11:21.724Z,101014.28
2022-10-26T11:14:22.480Z,101000.13
2022-10-26T11:17:01.882Z,100999.91
2022-10-26T11:19:52.431Z,101003.41
2022-10-26T11:22:28.444Z,101006.87
2022-10-26T11:25:21.142Z,101000.03
2022-10-26T11:28:08.997Z,101004.34
2022-10-26T11:30:49.851Z,100995.63
2022-10-26T11:33:23.814Z,101003.41
2022-10-26T11:35:59.265Z,100999.03
2022-10-26T11:38:46.609Z,100991.88
2022-10-26T11:41:33.119Z,100978.41
2022-10-26T11:44:02.874Z,100990.69
2022-10-26T11:46:37.467Z,100998.97
2022-10-26T11:49:15.180Z,101003.81
2022-10-26T11:51:57.844Z,100997.94
2022-10-26T11:54:30.106Z,100999.94
2022-10-26T11:59:51.967Z,101002.00
2022-10-26T12:02:21.167Z,101004.59
2022-10-26T12:04:52.678Z,101008.19
2022-10-26T12:07:33.124Z,101005.22
2022-10-26T12:10:07.011Z,101013.81
2022-10-26T12:12:37.569Z,101013.88
2022-10-26T12:15:08.796Z,101013.47
2022-10-26T12:17:38.353Z,101007.41
2022-10-26T12:20:20.889Z,101015.75
2022-10-26T12:22:48.026Z,101002.59
2022-10-26T12:25:15.613Z,101004.50
2022-10-26T12:27:42.962Z,101000.28
2022-10-26T12:30:16.412Z,100999.87
2022-10-26T12:32:48.824Z,100996.78
2022-10-26T12:35:36.035Z,100992.22
2022-10-26T12:38:22.755Z,100984.62
2022-10-26T12:41:08.139Z,100991.88
2022-10-26T12:43:36.505Z,100988.97
2022-10-26T12:46:12.813Z,100979.34
2022-10-26T12:48:40.003Z,100980.47
2022-10-26T12:51:22.878Z,100976.53
2022-10-26T12:53:57.024Z,100982.50
2022-10-26T12:56:51.489Z,100986.88
2022-10-26T13:00:03.178Z,100982.13
2022-10-26T13:02:40.989Z,100983.44
2022-10-26T13:05:24.877Z,100978.38
2022-10-26T13:08:03.539Z,100969.47
2022-10-26T13:10:32.908Z,100967.84
2022-10-26T13:13:01.078Z,100965.47
2022-10-26T13:15:28.195Z,100977.19
2022-10-26T13:18:14.885Z,100975.44
2022-10-26T13:21:40.601Z,100981.75
2022-10-26T13:24:27.834Z,100979.59
2022-10-26T13:27:08.549Z,100976.66
2022-10-26T13:29:54.216Z,100988.31
2022-10-26T13:32:33.220Z,100984.81
2022-10-26T13:35:04.299Z,100985.28
2022-10-26T13:37:32.801Z,100980.31
2022-10-26T13:40:27.095Z,100983.78
2022-10-26T13:43:00.944Z,100980.69
2022-10-26T13:45:32.235Z,100978.44
2022-10-26T13:48:22.868Z,100975.81
2022-10-26T13:50:52.644Z,100985.69
2022-10-26T13:53:37.639Z,100986.41
2022-10-26T13:56:22.923Z,100992.59
2022-10-26T13:58:49.748Z,100987.66
2022-10-26T14:01:24.116Z,100985.63
2022-10-26T14:03:51.954Z,100998.97
2022-10-26T14:06:24.211Z,100994.34
2022-10-26T14:08:58.612Z,100991.81
2022-10-26T14:11:32.883Z,100994.88
2022-10-26T14:14:03.824Z,100998.50
2022-10-26T14:16:35.545Z,100993.34
2022-10-26T14:19:34.322Z,100990.63
2022-10-26T14:22:07.285Z,100996.09
2022-10-26T14:24:47.857Z,100996.09
2022-10-26T14:27:19.450Z,100996.63
2022-10-26T14:30:03.668Z,100990.88
2022-10-26T14:32:34.348Z,100993.34
2022-10-26T14:35:50.381Z,100999.91
2022-10-26T14:37:51.758Z,100995.81
2022-10-26T14:40:20.910Z,100998.41
2022-10-26T14:43:11.428Z,100995.81
2022-10-26T14:46:23.529Z,100987.44
2022-10-26T14:48:44.213Z,100992.59
2022-10-26T14:51:52.612Z,100986.97
2022-10-26T15:01:24.896Z,101008.91
2022-10-26T15:03:56.423Z,101005.44
2022-10-26T15:06:30.215Z,101006.41
2022-10-26T15:09:00.374Z,101006.59
2022-10-26T15:11:27.890Z,101003.25
2022-10-26T15:13:55.303Z,101006.63
2022-10-26T15:16:23.444Z,101006.25
2022-10-26T15:18:52.536Z,101005.97
2022-10-26T15:21:22.453Z,101000.72
2022-10-26T15:23:49.918Z,101004.09
2022-10-26T15:26:16.888Z,100997.38
2022-10-26T15:28:43.820Z,101003.78
2022-10-26T15:31:10.650Z,101013.00
2022-10-26T15:33:57.694Z,101005.38
2022-10-26T15:36:25.376Z,101007.25
2022-10-26T15:38:52.247Z,101014.09
2022-10-26T15:41:28.175Z,101015.31
2022-10-26T15:43:59.677Z,101017.53
2022-10-26T15:46:29.736Z,101008.91
2022-10-26T15:48:58.098Z,101008.53
2022-10-26T15:51:24.928Z,101016.87
2022-10-26T15:53:52.003Z,101023.25
2022-10-26T15:56:19.843Z,101028.47
2022-10-26T15:58:47.432Z,101034.00
2022-10-26T16:01:18.095Z,101034.16
2022-10-26T16:03:45.077Z,101032.34
2022-10-26T16:06:39.691Z,101031.97
2022-10-26T16:09:07.509Z,101042.81
2022-10-26T16:11:34.393Z,101036.56
2022-10-26T16:14:03.708Z,101039.50
2022-10-26T16:16:31.078Z,101042.12
2022-10-26T16:19:18.311Z,101046.66
2022-10-26T16:21:45.317Z,101054.84
2022-10-26T16:24:12.175Z,101057.03
2022-10-26T16:26:39.210Z,101057.84
2022-10-26T16:29:06.160Z,101061.41
2022-10-26T16:31:33.319Z,101065.97
2022-10-26T16:34:03.205Z,101072.47
2022-10-26T16:36:34.333Z,101070.03
2022-10-26T16:41:29.554Z,101074.97
2022-10-26T16:43:56.597Z,101070.06
2022-10-26T16:46:40.408Z,101078.16
2022-10-26T16:49:07.507Z,101074.56
2022-10-26T16:51:38.953Z,101071.56
2022-10-26T16:54:06.296Z,101083.47
2022-10-26T16:56:33.244Z,101083.44
2022-10-26T16:59:00.053Z,101085.16
2022-10-26T17:01:27.150Z,101080.25
2022-10-26T17:03:54.618Z,101079.47
2022-10-26T17:06:21.880Z,101088.56
2022-10-26T17:08:48.725Z,101099.06
2022-10-26T17:11:19.970Z,101100.12
2022-10-26T17:13:47.112Z,101112.41
2022-10-26T17:16:15.193Z,101116.28
2022-10-26T17:18:42.602Z,101120.50
2022-10-26T17:21:10.511Z,101124.72
2022-10-26T17:23:38.706Z,101135.72
2022-10-26T17:26:06.745Z,101132.78
2022-10-26T17:28:34.168Z,101136.06
2022-10-26T17:31:08.495Z,101137.78
2022-10-26T17:33:36.087Z,101130.47
2022-10-26T17:36:03.456Z,101137.72
2022-10-26T17:38:34.355Z,101142.09
2022-10-26T17:41:02.740Z,101143.72
2022-10-26T17:43:32.873Z,101144.25
2022-10-26T17:46:00.561Z,101144.34
2022-10-26T17:48:28.238Z,101153.53
2022-10-26T17:50:55.403Z,101149.06
2022-10-26T17:53:22.469Z,101153.53
2022-10-26T17:55:59.924Z,101165.87
2022-10-26T17:58:26.869Z,101166.03
2022-10-26T18:00:55.978Z,101161.50
2022-10-26T18:03:23.328Z,101170.06
2022-10-26T18:05:51.725Z,101167.56
2022-10-26T18:08:18.670Z,101172.25
2022-10-26T18:10:49.304Z,101185.81
2022-10-26T18:13:16.391Z,101180.56
2022-10-26T18:15:43.527Z,101185.06
2022-10-26T18:18:10.538Z,101184.09
2022-10-26T18:20:37.682Z,101183.94
2022-10-26T18:23:04.625Z,101181.00
2022-10-26T18:25:34.217Z,101191.03
2022-10-26T18:28:01.246Z,101195.75
2022-10-26T18:30:28.095Z,101204.53
2022-10-26T18:32:55.145Z,101204.38
2022-10-26T18:35:22.006Z,101199.59
2022-10-26T18:37:49.104Z,101200.88
2022-10-26T18:40:16.311Z,101198.53
2022-10-26T18:42:43.207Z,101202.91
2022-10-26T18:45:10.079Z,101203.94
2022-10-26T18:47:36.828Z,101205.97
2022-10-26T18:50:03.985Z,101192.97
2022-10-26T18:52:31.088Z,101193.13
2022-10-26T18:54:58.009Z,101198.53
2022-10-26T18:57:29.365Z,101200.31
2022-10-26T18:59:56.190Z,101192.25
2022-10-26T19:02:23.271Z,101194.06
2022-10-26T19:04:51.843Z,101200.31
2022-10-26T19:07:18.745Z,101210.25
2022-10-26T19:09:45.647Z,101210.16
2022-10-26T19:12:12.514Z,101206.50
2022-10-26T19:14:39.445Z,101217.94
2022-10-26T19:17:06.221Z,101215.41
2022-10-26T19:19:33.047Z,101217.94
2022-10-26T19:22:01.258Z,101225.66
2022-10-26T19:24:28.453Z,101239.12
2022-10-26T19:26:56.858Z,101234.97
2022-10-26T19:29:24.072Z,101245.56
2022-10-26T19:31:52.485Z,101256.94
2022-10-26T19:34:19.988Z,101258.66
2022-10-26T19:36:47.537Z,101254.00
2022-10-26T19:39:17.710Z,101256.12
2022-10-26T19:41:45.509Z,101254.06
2022-10-26T19:44:12.593Z,101259.00
2022-10-26T19:46:39.940Z,101260.63
2022-10-26T19:49:06.876Z,101262.69
2022-10-26T19:51:34.174Z,101258.94
2022-10-26T19:54:03.872Z,101255.19
2022-10-26T19:56:31.532Z,101260.72
2022-10-26T19:58:58.486Z,101263.22
2022-10-26T20:01:25.789Z,101266.69
2022-10-26T20:03:52.657Z,101272.62
2022-10-26T20:06:19.561Z,101280.69
2022-10-26T20:08:48.159Z,101287.87
2022-10-26T20:11:16.458Z,101287.16
2022-10-26T20:13:43.776Z,101297.78
2022-10-26T20:16:11.164Z,101301.13
2022-10-26T20:18:41.191Z,101288.66
2022-10-26T20:21:11.559Z,101301.78
2022-10-26T20:23:38.417Z,101306.44
2022-10-26T20:28:33.090Z,101301.16
2022-10-26T20:31:00.001Z,101297.31
2022-10-26T20:33:27.498Z,101299.53
2022-10-26T20:35:58.148Z,101304.97
2022-10-26T20:38:25.244Z,101306.16
2022-10-26T20:40:56.681Z,101304.84
2022-10-26T20:43:23.882Z,101308.19
2022-10-26T20:45:51.179Z,101300.94
2022-10-26T20:48:18.348Z,101296.81
2022-10-26T20:50:48.803Z,101295.66
2022-10-26T20:53:24.666Z,101301.56
2022-10-26T20:55:54.133Z,101295.91
2022-10-26T20:58:24.254Z,101302.63
2022-10-26T21:00:55.882Z,101299.47
2022-10-26T21:03:22.725Z,101302.16
2022-10-26T21:05:49.712Z,101299.09
2022-10-26T21:08:16.569Z,101309.81
2022-10-26T21:10:43.318Z,101309.00
2022-10-26T21:13:10.140Z,101311.22
2022-10-26T21:15:37.163Z,101301.91
2022-10-26T21:18:04.244Z,101299.78
2022-10-26T21:20:31.463Z,101297.38
2022-10-26T21:22:58.313Z,101299.41
2022-10-26T21:25:25.086Z,101304.50
2022-10-26T21:27:58.821Z,101298.28
2022-10-26T21:30:26.020Z,101314.97
2022-10-26T21:32:53.544Z,101321.97
2022-10-26T21:35:21.167Z,101316.75
2022-10-26T21:37:48.566Z,101315.63
2022-10-26T21:40:15.631Z,101299.75
2022-10-26T21:42:42.470Z,101295.03
2022-10-26T21:45:09.515Z,101289.81
2022-10-26T21:47:36.360Z,101290.78
2022-10-26T21:50:03.214Z,101277.53
2022-10-26T21:52:30.524Z,101285.69
2022-10-26T21:54:57.563Z,101290.44
2022-10-26T21:57:24.744Z,101291.59
2022-10-26T21:59:53.102Z,101289.09
2022-10-26T22:02:20.000Z,101299.06
2022-10-26T22:04:47.009Z,101306.78
2022-10-26T22:07:13.958Z,101308.13
2022-10-26T22:09:49.624Z,101311.50
2022-10-26T22:12:27.569Z,101317.78
2022-10-26T22:14:54.410Z,101321.19
2022-10-26T22:17:21.287Z,101313.91
2022-10-26T22:19:48.292Z,101322.31
2022-10-26T22:22:15.271Z,101331.00
2022-10-26T22:24:42.112Z,101334.47
2022-10-26T22:27:09.039Z,101338.09
2022-10-26T22:29:35.995Z,101339.03
2022-10-26T22:32:02.847Z,101328.28
2022-10-26T22:34:29.662Z,101330.34
2022-10-26T22:36:56.409Z,101321.22
2022-10-26T22:39:24.221Z,101324.87
2022-10-26T22:41:51.028Z,101321.72
2022-10-26T22:44:17.979Z,101324.75
2022-10-26T22:46:44.806Z,101323.53
2022-10-26T22:49:11.725Z,101319.91
2022-10-26T22:51:38.546Z,101322.69
2022-10-26T22:54:05.621Z,101326.22
2022-10-26T22:56:33.341Z,101330.47
2022-10-26T22:59:00.558Z,101329.44
2022-10-26T23:01:29.060Z,101327.84
2022-10-26T23:03:56.447Z,101344.03
2022-10-26T23:06:24.375Z,101343.62
2022-10-26T23:08:51.204Z,101345.09
2022-10-26T23:11:19.090Z,101341.34
2022-10-26T23:13:46.276Z,101344.75
2022-10-26T23:16:14.437Z,101347.34
2022-10-26T23:18:41.616Z,101346.41
2022-10-26T23:21:09.641Z,101346.44
2022-10-26T23:23:37.171Z,101351.81
2022-10-26T23:26:08.363Z,101349.97
2022-10-26T23:28:36.000Z,101358.22
2022-10-26T23:31:02.814Z,101363.47
2022-10-26T23:33:29.540Z,101359.28
2022-10-26T23:35:56.487Z,101348.63
2022-10-26T23:38:23.469Z,101355.66
2022-10-26T23:40:54.185Z,101351.94
2022-10-26T23:43:21.699Z,101348.28
2022-10-26T23:45:48.870Z,101349.19
2022-10-26T23:48:16.081Z,101350.66
2022-10-26T23:50:43.633Z,101349.78
2022-10-26T23:53:10.919Z,101350.72
2022-10-26T23:55:37.752Z,101348.94
2022-10-26T23:58:04.684Z,101346.72
